Time;durP1;ratioP1;P1;durP2;ratioP2;P2;SDS_P1;SDS_P2;PMS_P1;PMS_P2;Temp;Humidity;BMP_temperature;BMP_pressure;BME280_temperature;BME280_humidity;BME280_pressure;Samples;Min_cycle;Max_cycle;Signal;HPM_P1;HPM_P2
2024/02/09 06:00:46;;;;;;;4.13;0.90;;;11.60;82.20;;;;;;4765368;23;20051;-81
2024/02/09 06:02:50;;;;;;;1.70;0.70;;;11.60;81.90;;;;;;4084538;29;20110;-80
2024/02/09 06:04:52;;;;;;;2.75;0.75;;;11.60;82.10;;;;;;4084607;29;20058;-80
2024/02/09 06:06:53;;;;;;;2.13;0.82;;;11.60;81.70;;;;;;4078252;29;20391;-79
2024/02/09 06:08:56;;;;;;;2.67;1.00;;;11.60;81.50;;;;;;4084627;29;20055;-81
2024/02/09 06:10:57;;;;;;;2.28;0.75;;;11.70;81.00;;;;;;4084569;29;20457;-81
2024/02/09 06:12:59;;;;;;;1.85;0.55;;;11.70;80.70;;;;;;4084440;29;20048;-79
2024/02/09 06:15:01;;;;;;;1.83;0.60;;;11.70;80.30;;;;;;4084410;29;20055;-79
2024/02/09 06:17:05;;;;;;;1.67;0.65;;;11.70;80.00;;;;;;4084364;29;20083;-80
2024/02/09 06:19:07;;;;;;;1.95;0.70;;;11.70;79.40;;;;;;4084278;29;20094;-79
2024/02/09 06:21:09;;;;;;;2.60;0.80;;;11.80;79.60;;;;;;4084516;29;20123;-81
2024/02/09 06:23:11;;;;;;;2.88;0.90;;;11.70;79.20;;;;;;4084480;29;20481;-79
2024/02/09 06:25:12;;;;;;;2.65;0.80;;;11.70;79.30;;;;;;4084393;29;20569;-80
2024/02/09 06:27:14;;;;;;;2.17;0.55;;;11.70;78.80;;;;;;4084405;29;20047;-80
2024/02/09 06:29:16;;;;;;;2.00;0.80;;;11.70;79.00;;;;;;4084433;29;20056;-80
2024/02/09 06:31:23;;;;;;;2.15;0.65;;;11.80;79.30;;;;;;4084333;29;20111;-81
2024/02/09 06:33:27;;;;;;;2.30;0.85;;;11.80;78.60;;;;;;4084469;29;20068;-82
2024/02/09 06:35:31;;;;;;;1.85;0.55;;;11.80;78.50;;;;;;4084495;29;20102;-80
2024/02/09 06:37:34;;;;;;;3.47;0.93;;;11.80;78.50;;;;;;4083971;29;20055;-81
2024/02/09 06:39:35;;;;;;;3.17;1.00;;;11.80;78.00;;;;;;4084370;29;20075;-79
2024/02/09 06:41:37;;;;;;;2.67;0.80;;;11.80;77.90;;;;;;4084296;29;20485;-80
2024/02/09 06:43:38;;;;;;;1.65;0.60;;;11.80;77.80;;;;;;4084467;29;20607;-80
2024/02/09 06:45:41;;;;;;;2.03;0.73;;;11.80;77.60;;;;;;4084384;29;20146;-81
2024/02/09 06:47:43;;;;;;;2.55;0.93;;;11.90;77.70;;;;;;4084171;29;20048;-80
2024/02/09 06:49:46;;;;;;;3.08;0.90;;;11.90;77.20;;;;;;4084469;29;20460;-79
2024/02/09 06:51:48;;;;;;;3.05;0.90;;;11.90;77.00;;;;;;4084979;29;20478;-82
2024/02/09 06:53:51;;;;;;;3.92;1.00;;;11.90;77.00;;;;;;4084317;29;20564;-79
2024/02/09 06:55:54;;;;;;;2.78;0.70;;;11.90;76.90;;;;;;4079783;29;20056;-80
2024/02/09 06:57:56;;;;;;;2.33;0.93;;;11.90;77.20;;;;;;4070557;29;20515;-79
2024/02/09 06:59:58;;;;;;;3.53;0.80;;;11.90;76.60;;;;;;4071738;29;20107;-78
2024/02/09 07:02:01;;;;;;;3.72;1.00;;;11.90;76.60;;;;;;4072029;29;20405;-79
2024/02/09 07:04:08;;;;;;;3.72;1.13;;;11.90;76.50;;;;;;4071831;29;20056;-80
2024/02/09 07:06:11;;;;;;;2.17;0.80;;;12.00;76.60;;;;;;4071714;29;20059;-80
2024/02/09 07:08:26;;;;;;;3.63;1.13;;;12.00;76.60;;;;;;4081230;29;20107;-78
2024/02/09 07:10:28;;;;;;;3.83;1.10;;;12.00;77.00;;;;;;4087182;29;20094;-81
2024/02/09 07:12:29;;;;;;;4.75;1.25;;;12.00;77.00;;;;;;4087484;29;20138;-78
2024/02/09 07:14:31;;;;;;;2.88;0.85;;;12.00;76.70;;;;;;4087842;29;20390;-79
2024/02/09 07:16:33;;;;;;;2.33;0.85;;;12.00;76.60;;;;;;4087013;29;20251;-79
2024/02/09 07:18:38;;;;;;;3.60;1.23;;;12.00;76.50;;;;;;4087128;29;20043;-79
2024/02/09 07:20:40;;;;;;;2.72;0.90;;;12.00;76.80;;;;;;4087478;29;20054;-80
2024/02/09 07:22:44;;;;;;;3.58;0.90;;;12.00;76.50;;;;;;4087857;29;20094;-79
2024/02/09 07:24:46;;;;;;;3.72;0.90;;;12.00;76.10;;;;;;4087641;29;20136;-76
2024/02/09 07:26:48;;;;;;;6.70;1.40;;;12.10;76.70;;;;;;4088000;29;20051;-78
2024/02/09 07:28:50;;;;;;;6.47;2.70;;;12.10;76.30;;;;;;4086190;29;20051;-77
2024/02/09 07:30:52;;;;;;;4.30;1.50;;;12.10;76.60;;;;;;4087760;29;20110;-78
2024/02/09 07:32:54;;;;;;;4.28;1.20;;;12.10;76.80;;;;;;4088093;29;20085;-77
2024/02/09 07:34:55;;;;;;;3.47;1.17;;;12.10;76.50;;;;;;4087110;29;20487;-77
2024/02/09 07:36:57;;;;;;;2.85;0.93;;;12.10;76.30;;;;;;4087021;29;20048;-77
2024/02/09 07:39:00;;;;;;;4.93;1.00;;;12.10;76.20;;;;;;4086804;29;20134;-78
2024/02/09 07:41:01;;;;;;;3.83;0.90;;;12.10;76.30;;;;;;4086922;29;20103;-77
2024/02/09 07:43:04;;;;;;;3.63;1.20;;;12.10;76.10;;;;;;4087349;29;20044;-77
2024/02/09 07:45:12;;;;;;;5.18;1.20;;;12.20;75.90;;;;;;4087275;29;20056;-75
2024/02/09 07:47:14;;;;;;;3.78;1.00;;;12.20;75.80;;;;;;4087685;29;20052;-77
2024/02/09 07:49:16;;;;;;;3.53;1.00;;;12.20;75.30;;;;;;4087130;29;20067;-77
2024/02/09 07:51:20;;;;;;;5.07;1.13;;;12.20;75.60;;;;;;4086911;29;20492;-77
2024/02/09 07:53:21;;;;;;;4.28;1.08;;;12.20;75.10;;;;;;4086659;29;20489;-79
2024/02/09 07:55:25;;;;;;;3.15;1.30;;;12.20;75.00;;;;;;4086746;29;20055;-77
2024/02/09 07:57:26;;;;;;;4.03;1.08;;;12.20;74.40;;;;;;4086743;29;20405;-77
2024/02/09 07:59:28;;;;;;;6.38;1.00;;;12.30;74.00;;;;;;4086634;29;20055;-78
2024/02/09 08:01:31;;;;;;;3.67;1.00;;;12.30;73.70;;;;;;4086624;29;20057;-78
2024/02/09 08:03:38;;;;;;;4.15;1.00;;;12.30;72.90;;;;;;4086511;29;20052;-78
2024/02/09 08:05:40;;;;;;;4.10;1.38;;;12.40;72.70;;;;;;4084516;29;20477;-78
2024/02/09 08:07:42;;;;;;;2.92;0.93;;;12.40;72.60;;;;;;4086195;29;20051;-78
2024/02/09 08:09:44;;;;;;;3.95;0.95;;;12.50;72.40;;;;;;4085102;29;20091;-78
2024/02/09 08:11:48;;;;;;;3.92;1.13;;;12.50;72.30;;;;;;4086435;29;20131;-77
2024/02/09 08:13:51;;;;;;;4.28;1.15;;;12.60;71.70;;;;;;4090119;29;20052;-78
2024/02/09 08:15:55;;;;;;;4.15;1.13;;;12.60;71.50;;;;;;4091883;29;20081;-78
2024/02/09 08:17:58;;;;;;;4.60;1.10;;;12.70;71.40;;;;;;4091555;29;20051;-77
2024/02/09 08:20:03;;;;;;;3.10;1.00;;;12.70;71.00;;;;;;4090525;29;20115;-78
2024/02/09 08:22:05;;;;;;;5.28;0.98;;;12.70;71.00;;;;;;4086863;29;20064;-78
2024/02/09 08:24:10;;;;;;;4.20;0.90;;;12.80;70.70;;;;;;4086758;29;20047;-76
2024/02/09 08:26:11;;;;;;;3.72;1.20;;;12.80;70.10;;;;;;4086146;29;20044;-76
2024/02/09 08:28:14;;;;;;;2.78;1.00;;;12.90;70.10;;;;;;4086233;29;20092;-77
2024/02/09 08:30:16;;;;;;;4.30;1.20;;;13.00;70.00;;;;;;4086018;29;20457;-77
2024/02/09 08:32:17;;;;;;;5.20;1.10;;;13.00;69.70;;;;;;4087152;29;20059;-78
2024/02/09 08:34:20;;;;;;;6.18;1.33;;;13.10;69.60;;;;;;4087392;29;20048;-78
2024/02/09 08:36:23;;;;;;;4.45;1.17;;;13.10;69.00;;;;;;4087376;29;20474;-79
2024/02/09 08:38:24;;;;;;;3.80;1.13;;;13.10;69.10;;;;;;4085991;29;20094;-78
2024/02/09 08:40:25;;;;;;;4.75;1.10;;;13.20;68.80;;;;;;4086233;29;20521;-79
2024/02/09 08:42:27;;;;;;;5.95;1.40;;;13.20;68.50;;;;;;4086048;29;20058;-78
2024/02/09 08:44:30;;;;;;;3.65;1.10;;;13.20;68.20;;;;;;4085929;29;20119;-79
2024/02/09 08:46:31;;;;;;;5.18;1.55;;;13.30;68.20;;;;;;4085916;29;20461;-80
2024/02/09 08:48:32;;;;;;;4.07;1.13;;;13.30;68.40;;;;;;4086233;29;20130;-77
2024/02/09 08:50:35;;;;;;;5.57;1.00;;;13.40;68.00;;;;;;4084623;29;20177;-77
2024/02/09 08:52:36;;;;;;;4.72;1.42;;;13.40;67.90;;;;;;4085824;29;20071;-78
2024/02/09 08:54:39;;;;;;;3.97;1.27;;;13.40;67.70;;;;;;4085647;29;20141;-78
2024/02/09 08:56:41;;;;;;;3.80;1.08;;;13.40;67.60;;;;;;4085830;29;20403;-79
2024/02/09 08:58:44;;;;;;;4.57;1.08;;;13.50;67.30;;;;;;4085722;29;20476;-79
2024/02/09 09:00:47;;;;;;;4.93;1.13;;;13.50;67.30;;;;;;4085834;29;20070;-78
2024/02/09 09:02:49;;;;;;;3.75;1.15;;;13.60;66.60;;;;;;4085863;29;20048;-77
2024/02/09 09:04:52;;;;;;;4.70;1.30;;;13.60;66.50;;;;;;4085930;29;20055;-77
2024/02/09 09:06:54;;;;;;;5.10;1.38;;;13.60;66.70;;;;;;4085557;29;20472;-77
2024/02/09 09:08:55;;;;;;;3.53;1.10;;;13.70;66.10;;;;;;4085831;29;20390;-77
2024/02/09 09:10:57;;;;;;;3.35;1.20;;;13.70;65.90;;;;;;4070144;29;20585;-77
2024/02/09 09:12:59;;;;;;;4.32;1.15;;;13.70;65.70;;;;;;4072047;29;20048;-77
2024/02/09 09:15:03;;;;;;;3.22;1.10;;;13.80;65.60;;;;;;4072122;29;20131;-78
2024/02/09 09:17:06;;;;;;;3.05;1.15;;;13.80;65.00;;;;;;4071822;29;20090;-78
2024/02/09 09:19:09;;;;;;;4.63;1.30;;;13.90;64.80;;;;;;4070558;29;20454;-78
2024/02/09 09:21:11;;;;;;;3.00;0.75;;;13.90;65.30;;;;;;4070748;29;20150;-79
2024/02/09 09:23:12;;;;;;;4.60;0.90;;;13.90;64.80;;;;;;4073212;29;20055;-78
2024/02/09 09:25:15;;;;;;;3.65;1.10;;;14.00;64.80;;;;;;4070293;29;20064;-78
2024/02/09 09:27:18;;;;;;;5.55;1.00;;;14.00;64.30;;;;;;4069719;29;20056;-77
2024/02/09 09:29:20;;;;;;;3.22;1.25;;;14.00;64.20;;;;;;4075789;29;20132;-78
2024/02/09 09:31:21;;;;;;;3.85;0.95;;;14.10;64.10;;;;;;4084524;29;20115;-78
2024/02/09 09:33:25;;;;;;;3.88;1.23;;;14.10;64.20;;;;;;4088721;29;20469;-77
2024/02/09 09:35:27;;;;;;;4.88;1.02;;;14.20;63.30;;;;;;4088162;29;20051;-77
2024/02/09 09:37:28;;;;;;;3.55;1.00;;;14.20;62.80;;;;;;4086103;29;20071;-78
2024/02/09 09:39:30;;;;;;;5.00;0.95;;;14.20;62.60;;;;;;4086432;29;20047;-78
2024/02/09 09:41:32;;;;;;;5.93;1.30;;;14.20;62.70;;;;;;4090037;29;20052;-77
2024/02/09 09:43:34;;;;;;;4.47;1.90;;;14.20;62.60;;;;;;4088269;29;20052;-77
2024/02/09 09:45:36;;;;;;;5.63;1.38;;;14.20;63.00;;;;;;4085734;29;20047;-78
2024/02/09 09:47:41;;;;;;;2.90;1.20;;;14.20;63.20;;;;;;4085633;29;20481;-77
2024/02/09 09:49:45;;;;;;;4.85;0.90;;;14.30;62.40;;;;;;4085772;29;20051;-78
2024/02/09 09:51:54;;;;;;;4.10;0.95;;;14.30;61.90;;;;;;4076580;29;20052;-78
2024/02/09 09:53:56;;;;;;;4.60;0.90;;;14.30;62.00;;;;;;4069075;29;20103;-77
2024/02/09 09:55:59;;;;;;;4.55;1.20;;;14.30;61.60;;;;;;4073821;29;20536;-78
2024/02/09 09:58:02;;;;;;;4.18;1.08;;;14.40;61.20;;;;;;4083457;29;20058;-78
2024/02/09 10:00:06;;;;;;;3.55;0.90;;;14.40;61.20;;;;;;4084218;29;20078;-80
2024/02/09 10:02:09;;;;;;;4.45;1.25;;;14.40;61.30;;;;;;4083493;29;20055;-78
2024/02/09 10:04:11;;;;;;;3.40;1.15;;;14.40;60.90;;;;;;4083840;29;20492;-78
2024/02/09 10:06:15;;;;;;;4.50;0.95;;;14.40;61.80;;;;;;4084088;29;20055;-79
2024/02/09 10:08:18;;;;;;;4.97;1.02;;;14.50;60.80;;;;;;4084491;29;20054;-79
2024/02/09 10:10:22;;;;;;;2.65;0.80;;;14.50;60.60;;;;;;4081978;29;20465;-79
2024/02/09 10:12:24;;;;;;;5.68;1.10;;;14.50;60.00;;;;;;4082634;29;20062;-78
2024/02/09 10:14:26;;;;;;;6.07;1.20;;;14.60;60.40;;;;;;4083102;29;20055;-79
2024/02/09 10:16:28;;;;;;;2.38;0.88;;;14.60;60.20;;;;;;4084570;29;20123;-77
2024/02/09 10:18:33;;;;;;;3.13;0.95;;;14.60;59.90;;;;;;4084833;29;20497;-78
2024/02/09 10:20:35;;;;;;;4.18;1.10;;;14.70;60.30;;;;;;4083420;29;20056;-77
2024/02/09 10:22:38;;;;;;;5.65;1.40;;;14.60;59.70;;;;;;4083662;29;20051;-77
2024/02/09 10:24:41;;;;;;;3.35;0.85;;;14.60;60.50;;;;;;4083702;29;20400;-77
2024/02/09 10:26:46;;;;;;;2.67;0.75;;;14.70;60.00;;;;;;4085104;29;20051;-76
2024/02/09 10:28:52;;;;;;;3.22;1.00;;;14.60;59.90;;;;;;4085865;29;20489;-79
2024/02/09 10:30:54;;;;;;;;;;;14.70;60.30;;;;;;4084614;29;20051;-77
2024/02/09 10:32:56;;;;;;;2.33;0.70;;;14.60;60.50;;;;;;4086853;29;20389;-77
2024/02/09 10:34:57;;;;;;;3.35;0.80;;;14.60;61.10;;;;;;4085968;29;20055;-76
2024/02/09 10:37:01;;;;;;;4.28;0.88;;;14.60;60.30;;;;;;4085941;29;20468;-77
2024/02/09 10:39:04;;;;;;;3.00;1.02;;;14.60;60.70;;;;;;4085932;29;20059;-76
2024/02/09 10:41:11;;;;;;;4.07;1.00;;;14.70;60.10;;;;;;4085674;29;20114;-75
2024/02/09 10:43:14;;;;;;;4.93;1.15;;;14.70;60.00;;;;;;4085677;29;20055;-78
2024/02/09 10:45:16;;;;;;;2.95;0.73;;;14.70;60.00;;;;;;4085778;29;20201;-77
2024/02/09 10:47:19;;;;;;;3.00;0.85;;;14.70;59.70;;;;;;4097499;29;20082;-81
2024/02/09 10:49:21;;;;;;;6.30;1.70;;;14.80;59.40;;;;;;4092478;29;20091;-78
2024/02/09 10:51:27;;;;;;;2.40;0.90;;;14.70;59.20;;;;;;4097831;29;20051;-81
2024/02/09 10:53:32;;;;;;;4.03;0.90;;;14.80;59.10;;;;;;4101345;29;20129;-80
2024/02/09 10:55:40;;;;;;;3.08;0.90;;;14.80;59.40;;;;;;4089219;29;20052;-79
2024/02/09 10:57:44;;;;;;;3.35;1.00;;;14.90;59.20;;;;;;4089287;29;20482;-79
2024/02/09 10:59:48;;;;;;;6.05;1.02;;;14.90;58.60;;;;;;4086308;29;20084;-78
2024/02/09 11:01:50;;;;;;;5.05;1.00;;;14.90;58.80;;;;;;4087222;29;20055;-81
2024/02/09 11:03:53;;;;;;;3.63;1.00;;;15.00;59.20;;;;;;4095534;29;20055;-81
2024/02/09 11:05:55;;;;;;;4.70;1.70;;;15.00;59.30;;;;;;4103070;29;20062;-79
2024/02/09 11:07:58;;;;;;;4.60;1.10;;;15.00;59.30;;;;;;4093601;29;20051;-80
2024/02/09 11:10:00;;;;;;;3.63;1.20;;;15.10;58.80;;;;;;4098228;29;20051;-82
2024/02/09 11:12:10;;;;;;;3.50;0.93;;;15.10;59.00;;;;;;4098444;29;20078;-78
2024/02/09 11:14:15;;;;;;;4.07;1.20;;;15.10;59.40;;;;;;4085943;29;20055;-79
2024/02/09 11:16:19;;;;;;;3.90;1.13;;;15.10;58.70;;;;;;4084227;29;20055;-79
2024/02/09 11:18:21;;;;;;;4.13;0.90;;;15.10;58.60;;;;;;4070481;29;20052;-78
2024/02/09 11:20:25;;;;;;;4.40;1.33;;;15.20;58.70;;;;;;4089349;29;20063;-81
2024/02/09 11:22:30;;;;;;;2.50;0.90;;;15.20;58.30;;;;;;4088838;29;20055;-81
2024/02/09 11:24:32;;;;;;;4.15;1.08;;;15.20;58.30;;;;;;4072345;29;20071;-78
2024/02/09 11:26:40;;;;;;;2.47;0.82;;;15.20;59.10;;;;;;4088591;29;20498;-80
2024/02/09 11:28:44;;;;;;;4.55;1.20;;;15.20;58.60;;;;;;4090552;29;20065;-79
2024/02/09 11:30:54;;;;;;;3.65;0.90;;;15.30;58.60;;;;;;4090017;29;20486;-77
2024/02/09 11:32:59;;;;;;;3.75;1.27;;;15.30;58.30;;;;;;4087503;29;20083;-79
2024/02/09 11:35:01;;;;;;;6.32;1.23;;;15.20;58.00;;;;;;4103200;29;20449;-79
2024/02/09 11:37:04;;;;;;;3.38;0.82;;;15.20;58.10;;;;;;4084462;29;20048;-80
2024/02/09 11:39:09;;;;;;;4.40;0.95;;;15.20;58.00;;;;;;4076363;29;20317;-77
2024/02/09 11:41:12;;;;;;;;;;;15.20;57.90;;;;;;4077499;29;20075;-79
2024/02/09 11:43:15;;;;;;;2.85;1.00;;;15.20;58.20;;;;;;4074808;29;19970;-79
2024/02/09 11:45:20;;;;;;;4.63;1.05;;;15.10;58.30;;;;;;4077189;29;20060;-81
2024/02/09 11:47:23;;;;;;;;;;;15.10;58.10;;;;;;4086847;29;20738;-79
2024/02/09 11:49:27;;;;;;;3.50;1.10;;;15.10;58.10;;;;;;4074737;29;19931;-78
2024/02/09 11:51:28;;;;;;;3.63;0.93;;;15.10;58.30;;;;;;4080253;29;20497;-79
2024/02/09 11:53:30;;;;;;;4.72;1.42;;;15.10;58.40;;;;;;4076173;29;20055;-78
2024/02/09 11:55:33;;;;;;;4.22;1.10;;;15.10;57.80;;;;;;4077721;29;20055;-78
2024/02/09 11:57:38;;;;;;;4.43;1.10;;;15.00;57.70;;;;;;4082942;29;20409;-79
2024/02/09 11:59:41;;;;;;;2.63;0.80;;;15.00;57.90;;;;;;4082255;29;20443;-81
2024/02/09 12:01:45;;;;;;;3.72;1.00;;;15.00;57.80;;;;;;4066832;29;20056;-82
2024/02/09 12:03:47;;;;;;;4.07;1.00;;;15.00;57.80;;;;;;4081591;29;20474;-81
2024/02/09 12:05:51;;;;;;;5.15;1.42;;;14.90;58.30;;;;;;4067517;29;20096;-81
2024/02/09 12:07:54;;;;;;;3.92;1.20;;;14.90;58.10;;;;;;4063985;29;20051;-82
2024/02/09 12:09:55;;;;;;;3.42;1.25;;;14.90;58.30;;;;;;4079442;29;20043;-80
2024/02/09 12:11:57;;;;;;;3.60;1.08;;;14.90;58.00;;;;;;4082035;29;20052;-81
2024/02/09 12:13:59;;;;;;;3.22;1.10;;;14.90;58.40;;;;;;4087124;29;20048;-82
2024/02/09 12:16:03;;;;;;;4.38;1.15;;;14.90;59.20;;;;;;4083594;29;20044;-81
2024/02/09 12:18:08;;;;;;;3.13;1.17;;;14.80;58.20;;;;;;4066655;29;20541;-81
2024/02/09 12:20:15;;;;;;;4.68;0.90;;;14.80;58.70;;;;;;4081507;29;20067;-82
2024/02/09 12:22:18;;;;;;;4.35;1.30;;;14.80;58.70;;;;;;4072638;29;20055;-83
2024/02/09 12:24:21;;;;;;;4.57;1.10;;;14.70;59.10;;;;;;4085723;29;20052;-80
2024/02/09 12:26:24;;;;;;;4.15;1.15;;;14.70;59.40;;;;;;4082872;29;20059;-83
2024/02/09 12:28:28;;;;;;;5.30;1.45;;;14.70;59.30;;;;;;4089267;29;20056;-82
2024/02/09 12:30:30;;;;;;;3.67;1.20;;;14.60;59.50;;;;;;4083848;29;20052;-81
2024/02/09 12:32:32;;;;;;;4.28;0.98;;;14.60;59.70;;;;;;4075910;29;20053;-83
2024/02/09 12:34:43;;;;;;;4.25;1.20;;;14.50;59.80;;;;;;4081483;29;20108;-82
2024/02/09 12:36:57;;;;;;;3.88;1.20;;;14.50;59.90;;;;;;4075761;29;20048;-82
2024/02/09 12:39:06;;;;;;;5.18;1.10;;;14.50;59.90;;;;;;4050089;29;20556;-81
2024/02/09 12:41:09;;;;;;;3.63;1.08;;;14.50;60.40;;;;;;4088355;29;20502;-82
2024/02/09 12:43:11;;;;;;;3.20;1.10;;;14.40;62.40;;;;;;4076081;29;20514;-82
2024/02/09 12:45:13;;;;;;;3.30;1.23;;;14.30;62.60;;;;;;4075763;29;20131;-82
2024/02/09 12:47:14;;;;;;;3.55;0.93;;;14.20;63.40;;;;;;4078238;29;20064;-81
2024/02/09 12:49:19;;;;;;;3.65;1.20;;;14.20;64.10;;;;;;4085583;29;20245;-84
2024/02/09 12:51:22;;;;;;;4.82;1.30;;;14.10;64.60;;;;;;4094862;29;20051;-82
2024/02/09 12:53:25;;;;;;;4.05;1.10;;;14.10;65.20;;;;;;4093579;29;20503;-83
2024/02/09 12:55:27;;;;;;;4.55;1.10;;;14.00;65.70;;;;;;4080172;29;20060;-82
2024/02/09 12:57:29;;;;;;;3.97;1.38;;;13.90;66.10;;;;;;4080540;29;20104;-84
2024/02/09 12:59:31;;;;;;;3.85;1.30;;;13.90;66.70;;;;;;4080209;29;20047;-83
2024/02/09 13:01:33;;;;;;;5.97;1.50;;;13.90;66.70;;;;;;4082767;29;20432;-82
2024/02/09 13:03:35;;;;;;;4.93;1.58;;;13.90;66.70;;;;;;4074522;29;20127;-82
2024/02/09 13:05:37;;;;;;;5.28;1.65;;;13.90;66.80;;;;;;4075743;29;20048;-83
2024/02/09 13:07:40;;;;;;;3.88;1.50;;;14.00;66.80;;;;;;4081070;29;20051;-82
2024/02/09 13:09:43;;;;;;;6.07;1.25;;;14.00;66.80;;;;;;4081458;29;20052;-81
2024/02/09 13:11:49;;;;;;;3.90;1.20;;;14.00;66.80;;;;;;4074118;29;20048;-81
2024/02/09 13:13:51;;;;;;;4.00;1.00;;;14.00;66.80;;;;;;4078917;29;20128;-82
2024/02/09 13:15:53;;;;;;;3.50;1.00;;;14.00;66.20;;;;;;4077223;29;20048;-82
2024/02/09 13:17:54;;;;;;;5.25;1.73;;;14.10;66.20;;;;;;4087496;29;20508;-82
2024/02/09 13:19:56;;;;;;;3.53;1.30;;;14.10;65.90;;;;;;4089104;29;20059;-83
2024/02/09 13:22:01;;;;;;;5.43;1.23;;;14.20;65.50;;;;;;4083921;29;20063;-82
2024/02/09 13:24:07;;;;;;;5.28;1.30;;;14.20;64.30;;;;;;4073032;29;20048;-81
2024/02/09 13:26:15;;;;;;;4.97;1.30;;;14.30;64.50;;;;;;4075316;29;20550;-84
2024/02/09 13:28:17;;;;;;;4.25;1.13;;;14.30;64.50;;;;;;4074667;29;20055;-78
2024/02/09 13:30:19;;;;;;;3.10;1.10;;;14.40;64.10;;;;;;4078707;29;20047;-80
2024/02/09 13:32:22;;;;;;;4.90;1.17;;;14.40;64.00;;;;;;4059478;29;20067;-80
2024/02/09 13:34:24;;;;;;;5.60;1.30;;;14.40;63.80;;;;;;4081378;29;20143;-79
2024/02/09 13:36:26;;;;;;;5.97;1.20;;;14.40;63.90;;;;;;4083537;29;20051;-78
2024/02/09 13:38:30;;;;;;;3.97;1.33;;;14.40;63.40;;;;;;4084904;29;20409;-79
2024/02/09 13:40:33;;;;;;;4.00;1.20;;;14.40;63.40;;;;;;4074268;29;20048;-80
2024/02/09 13:42:36;;;;;;;4.20;1.20;;;14.50;63.70;;;;;;4082429;29;20121;-80
2024/02/09 13:44:38;;;;;;;3.67;1.20;;;14.50;63.60;;;;;;4077085;29;20050;-81
2024/02/09 13:46:40;;;;;;;2.90;1.13;;;14.40;63.40;;;;;;4074292;29;20044;-78
2024/02/09 13:48:42;;;;;;;5.32;1.23;;;14.40;63.60;;;;;;4073458;29;20092;-79
2024/02/09 13:50:44;;;;;;;4.70;1.33;;;14.40;63.90;;;;;;4073266;29;20502;-77
2024/02/09 13:52:47;;;;;;;4.07;1.25;;;14.40;64.20;;;;;;4067246;29;20557;-80
2024/02/09 13:54:49;;;;;;;3.55;1.20;;;14.40;64.00;;;;;;4069734;29;20055;-78
2024/02/09 13:56:51;;;;;;;3.30;1.08;;;14.40;64.00;;;;;;4076116;29;20048;-78
2024/02/09 13:58:53;;;;;;;5.10;1.20;;;14.40;64.10;;;;;;4073087;29;20111;-79
2024/02/09 14:00:55;;;;;;;4.55;1.45;;;14.40;64.00;;;;;;4073939;29;20127;-79
2024/02/09 14:02:57;;;;;;;3.40;1.30;;;14.50;63.80;;;;;;4073245;29;20056;-79
2024/02/09 14:04:59;;;;;;;5.50;1.23;;;14.50;64.10;;;;;;4067625;29;20104;-80
2024/02/09 14:07:04;;;;;;;3.92;1.30;;;14.50;64.20;;;;;;4068218;29;20048;-75
2024/02/09 14:09:06;;;;;;;3.72;1.40;;;14.50;64.40;;;;;;4073676;29;20055;-78
2024/02/09 14:11:07;;;;;;;3.10;1.20;;;14.50;64.00;;;;;;4066347;29;20047;-80
2024/02/09 14:13:11;;;;;;;6.35;1.40;;;14.40;64.50;;;;;;4075832;29;20046;-75
2024/02/09 14:15:13;;;;;;;4.18;1.30;;;14.40;64.70;;;;;;4079420;29;20052;-78
2024/02/09 14:17:15;;;;;;;3.75;1.30;;;14.50;64.90;;;;;;4081154;29;20071;-78
2024/02/09 14:19:17;;;;;;;4.00;1.50;;;14.50;65.10;;;;;;4077104;29;20635;-77
2024/02/09 14:21:18;;;;;;;6.00;1.58;;;14.60;65.20;;;;;;4068516;29;20056;-75
2024/02/09 14:23:20;;;;;;;3.78;1.42;;;14.60;65.10;;;;;;4069671;29;20123;-77
2024/02/09 14:25:22;;;;;;;3.55;1.30;;;14.60;65.00;;;;;;4070368;29;20082;-79
2024/02/09 14:27:25;;;;;;;4.60;1.48;;;14.60;65.30;;;;;;4069433;29;20056;-78
2024/02/09 14:29:30;;;;;;;4.30;1.50;;;14.60;65.50;;;;;;4067536;29;20091;-79
2024/02/09 14:31:31;;;;;;;6.15;1.70;;;14.70;65.30;;;;;;4071475;29;20144;-77
2024/02/09 14:33:33;;;;;;;3.20;1.40;;;14.60;66.50;;;;;;4069545;29;20044;-78
2024/02/09 14:35:35;;;;;;;4.75;1.42;;;14.60;66.90;;;;;;4075260;29;20056;-77
2024/02/09 14:37:37;;;;;;;6.78;1.50;;;14.60;66.80;;;;;;4069010;29;20070;-79
2024/02/09 14:39:42;;;;;;;4.65;1.50;;;14.60;67.10;;;;;;4065938;29;20052;-77
2024/02/09 14:41:44;;;;;;;4.05;1.50;;;14.60;67.30;;;;;;4066090;29;20048;-80
2024/02/09 14:43:46;;;;;;;3.65;1.23;;;14.60;67.10;;;;;;4064896;29;20048;-82
2024/02/09 14:45:49;;;;;;;3.70;1.40;;;14.60;67.40;;;;;;4067854;29;20115;-79
2024/02/09 14:47:51;;;;;;;3.90;1.27;;;14.60;66.90;;;;;;4077404;29;20055;-78
2024/02/09 14:49:53;;;;;;;4.35;1.30;;;14.60;67.20;;;;;;4068124;29;20052;-78
2024/02/09 14:51:54;;;;;;;3.92;1.48;;;14.70;66.50;;;;;;4065568;29;20055;-77
2024/02/09 14:53:55;;;;;;;4.68;1.65;;;14.70;66.20;;;;;;4074526;29;20052;-77
2024/02/09 14:55:57;;;;;;;4.55;1.52;;;14.70;66.50;;;;;;4070200;29;20569;-79
2024/02/09 14:58:01;;;;;;;4.57;1.60;;;14.70;66.20;;;;;;4070496;29;20048;-79
2024/02/09 15:00:04;;;;;;;6.60;1.20;;;14.60;65.40;;;;;;4074515;29;20048;-82
2024/02/09 15:02:10;;;;;;;4.45;1.42;;;14.60;66.40;;;;;;4073069;29;20090;-80
2024/02/09 15:04:12;;;;;;;9.90;2.03;;;14.60;66.40;;;;;;4078113;29;20143;-81
2024/02/09 15:06:14;;;;;;;6.82;3.90;;;14.50;66.70;;;;;;4083645;29;20047;-76
2024/02/09 15:08:17;;;;;;;6.07;2.25;;;14.60;66.40;;;;;;4079262;29;20058;-82
2024/02/09 15:10:20;;;;;;;5.93;1.60;;;14.60;65.70;;;;;;4086423;29;20052;-82
2024/02/09 15:12:22;;;;;;;5.25;1.40;;;14.60;63.60;;;;;;4072584;29;20047;-83
2024/02/09 15:14:24;;;;;;;5.95;1.60;;;14.50;63.60;;;;;;4075657;29;20048;-80
2024/02/09 15:16:26;;;;;;;4.95;1.45;;;14.50;64.10;;;;;;4067385;29;20453;-81
2024/02/09 15:18:30;;;;;;;4.15;1.40;;;14.60;64.20;;;;;;4070789;29;20055;-80
2024/02/09 15:20:32;;;;;;;4.10;1.20;;;14.50;63.80;;;;;;4075096;29;20062;-80
2024/02/09 15:22:34;;;;;;;6.30;1.30;;;14.60;63.60;;;;;;4080837;29;20085;-81
2024/02/09 15:24:36;;;;;;;3.42;1.30;;;14.50;63.20;;;;;;4086899;29;20044;-81
2024/02/09 15:26:39;;;;;;;3.60;0.95;;;14.50;63.10;;;;;;4084896;29;20138;-81
2024/02/09 15:28:41;;;;;;;4.28;1.45;;;14.60;63.20;;;;;;4080303;29;20048;-81
2024/02/09 15:30:44;;;;;;;3.08;1.10;;;14.50;63.00;;;;;;4079050;29;20044;-80
2024/02/09 15:32:47;;;;;;;2.80;0.88;;;14.50;63.10;;;;;;4077118;29;20083;-80
2024/02/09 15:34:50;;;;;;;4.97;1.00;;;14.50;63.00;;;;;;4081504;29;20068;-82
2024/02/09 15:36:53;;;;;;;3.15;0.90;;;14.40;63.40;;;;;;4080162;29;20059;-80
2024/02/09 15:38:55;;;;;;;3.15;1.00;;;14.40;62.70;;;;;;4086502;29;20052;-81
2024/02/09 15:40:56;;;;;;;3.08;1.00;;;14.40;62.90;;;;;;4081799;29;20107;-81
2024/02/09 15:42:58;;;;;;;2.88;0.93;;;14.40;63.60;;;;;;4085494;29;20056;-80
2024/02/09 15:45:00;;;;;;;4.25;1.10;;;14.30;63.90;;;;;;4071680;29;20048;-82
2024/02/09 15:47:02;;;;;;;2.67;1.08;;;14.30;64.60;;;;;;4081693;29;20052;-80
2024/02/09 15:49:03;;;;;;;6.90;2.85;;;14.30;64.80;;;;;;4074027;29;20051;-81
2024/02/09 15:51:06;;;;;;;13.27;7.28;;;14.20;65.60;;;;;;4075755;29;20116;-83
2024/02/09 15:53:09;;;;;;;4.28;1.52;;;14.20;67.10;;;;;;4086524;29;20075;-76
2024/02/09 15:55:16;;;;;;;5.97;2.53;;;14.10;68.40;;;;;;4069729;29;20052;-78
2024/02/09 15:57:17;;;;;;;6.45;3.28;;;14.00;69.50;;;;;;4080554;29;20083;-77
2024/02/09 15:59:19;;;;;;;4.40;1.90;;;13.80;69.90;;;;;;4070645;29;20048;-78
2024/02/09 16:01:21;;;;;;;2.17;0.50;;;13.70;70.50;;;;;;4078066;29;20056;-78
2024/02/09 16:03:23;;;;;;;2.00;0.40;;;13.60;71.00;;;;;;4077653;29;20863;-75
2024/02/09 16:05:27;;;;;;;1.05;0.43;;;13.50;71.00;;;;;;4076102;29;20380;-78
2024/02/09 16:07:30;;;;;;;0.90;0.40;;;13.50;72.30;;;;;;4071478;29;20062;-76
2024/02/09 16:09:32;;;;;;;2.05;0.60;;;13.40;71.10;;;;;;4072350;29;20058;-78
2024/02/09 16:11:34;;;;;;;1.40;0.40;;;13.40;71.70;;;;;;4083955;29;20467;-77
2024/02/09 16:13:37;;;;;;;1.45;0.40;;;13.30;72.20;;;;;;4071220;29;20150;-76
2024/02/09 16:15:42;;;;;;;1.95;0.47;;;13.30;72.50;;;;;;4074375;29;20592;-78
2024/02/09 16:17:44;;;;;;;1.20;0.40;;;13.30;72.90;;;;;;4070683;29;20044;-77
2024/02/09 16:19:46;;;;;;;1.13;0.30;;;13.30;72.80;;;;;;4078534;29;20058;-78
2024/02/09 16:21:56;;;;;;;2.08;0.50;;;13.30;73.00;;;;;;4082035;29;20048;-78
2024/02/09 16:24:09;;;;;;;2.15;0.50;;;13.30;73.20;;;;;;4079720;29;20135;-78
2024/02/09 16:26:11;;;;;;;7.10;2.88;;;13.30;73.90;;;;;;4068563;29;20411;-79
2024/02/09 16:28:14;;;;;;;1.77;0.65;;;13.30;74.10;;;;;;4078375;29;20532;-78
2024/02/09 16:30:17;;;;;;;1.20;0.47;;;13.20;74.10;;;;;;4081542;29;20541;-76
2024/02/09 16:32:18;;;;;;;2.50;1.15;;;13.20;74.60;;;;;;4076413;29;20075;-78
2024/02/09 16:34:20;;;;;;;2.88;0.95;;;13.20;74.80;;;;;;4079199;29;20051;-77
2024/02/09 16:36:22;;;;;;;2.50;0.80;;;13.20;75.30;;;;;;4076046;29;20500;-79
2024/02/09 16:38:25;;;;;;;2.15;0.80;;;13.20;75.30;;;;;;4072720;29;20044;-78
2024/02/09 16:40:27;;;;;;;2.33;0.75;;;13.20;75.70;;;;;;4068146;29;20080;-77